createdAt,value
2018-05-12T00:00:19.829Z,91.00
2018-05-12T00:02:46.061Z,90.90
2018-05-12T00:05:12.336Z,90.70
2018-05-12T00:07:38.576Z,91.10
2018-05-12T00:10:04.872Z,90.80
2018-05-12T00:12:31.151Z,91.00
2018-05-12T00:14:57.413Z,90.90
2018-05-12T00:17:23.657Z,90.20
2018-05-12T00:19:49.875Z,90.20
2018-05-12T00:22:16.159Z,90.30
2018-05-12T00:24:43.172Z,90.90
2018-05-12T00:27:10.172Z,91.50
2018-05-12T00:29:37.163Z,91.30
2018-05-12T00:32:03.789Z,91.20
2018-05-12T00:34:30.006Z,91.50
2018-05-12T00:36:57.051Z,92.10
2018-05-12T00:39:24.007Z,92.20
2018-05-12T00:41:51.024Z,92.10
2018-05-12T00:44:17.649Z,91.50
2018-05-12T00:46:43.946Z,91.50
2018-05-12T00:49:10.188Z,91.90
2018-05-12T00:51:36.473Z,91.80
2018-05-12T00:54:03.100Z,91.90
2018-05-12T00:56:29.383Z,91.10
2018-05-12T00:58:56.392Z,91.30
2018-05-12T01:01:22.616Z,91.30
2018-05-12T01:03:48.835Z,91.10
2018-05-12T01:06:15.837Z,91.10
2018-05-12T01:08:42.081Z,91.30
2018-05-12T01:11:09.823Z,91.60
2018-05-12T01:13:36.191Z,91.40
2018-05-12T01:16:02.344Z,91.50
2018-05-12T01:18:29.349Z,91.80
2018-05-12T01:20:55.592Z,91.60
2018-05-12T01:23:22.542Z,92.20
2018-05-12T01:25:48.813Z,92.10
2018-05-12T01:28:15.764Z,92.30
2018-05-12T01:30:42.758Z,91.90
2018-05-12T01:33:08.989Z,92.10
2018-05-12T01:35:35.259Z,92.10
2018-05-12T01:38:01.514Z,91.80
2018-05-12T01:40:27.791Z,91.30
2018-05-12T01:42:54.009Z,91.20
2018-05-12T01:45:20.981Z,91.70
2018-05-12T01:47:47.250Z,91.60
2018-05-12T01:50:13.508Z,91.60
2018-05-12T01:52:39.745Z,91.70
2018-05-12T01:55:06.019Z,91.70
2018-05-12T01:57:32.272Z,91.70
2018-05-12T01:59:58.533Z,92.20
2018-05-12T02:02:25.507Z,91.50
2018-05-12T02:04:51.798Z,91.20
2018-05-12T02:07:18.032Z,91.10
2018-05-12T02:09:44.249Z,91.00
2018-05-12T02:12:10.508Z,91.20
2018-05-12T02:14:36.778Z,91.40
2018-05-12T02:17:03.449Z,91.30
2018-05-12T02:19:30.404Z,91.60
2018-05-12T02:21:57.372Z,91.70
2018-05-12T02:24:23.584Z,91.60
2018-05-12T02:26:50.556Z,91.90
2018-05-12T02:29:17.189Z,91.60
2018-05-12T02:31:44.134Z,92.00
2018-05-12T02:34:11.144Z,91.80
2018-05-12T02:36:37.362Z,91.50
2018-05-12T02:39:03.649Z,91.70
2018-05-12T02:41:30.585Z,92.20
2018-05-12T02:43:56.865Z,92.10
2018-05-12T02:46:23.855Z,92.40
2018-05-12T02:48:50.453Z,92.20
2018-05-12T02:51:16.679Z,92.30
2018-05-12T02:53:43.264Z,92.50
2018-05-12T02:56:09.503Z,92.60
2018-05-12T02:58:35.729Z,91.90
2018-05-12T03:01:02.879Z,91.80
2018-05-12T03:03:29.115Z,91.90
2018-05-12T03:05:55.390Z,91.00
2018-05-12T03:08:21.677Z,90.90
2018-05-12T03:10:48.303Z,91.00
2018-05-12T03:13:15.265Z,91.60
2018-05-12T03:15:41.465Z,91.50
2018-05-12T03:18:07.879Z,91.60
2018-05-12T03:20:34.130Z,91.70
2018-05-12T03:23:00.374Z,92.20
2018-05-12T03:25:26.569Z,92.20
2018-05-12T03:27:52.833Z,91.70
2018-05-12T03:30:19.064Z,91.60
2018-05-12T03:32:45.662Z,91.50
2018-05-12T03:35:11.868Z,91.60
2018-05-12T03:37:38.869Z,92.40
2018-05-12T03:40:05.107Z,92.00
2018-05-12T03:42:31.340Z,91.70
2018-05-12T03:44:57.637Z,91.60
2018-05-12T03:47:24.249Z,91.70
2018-05-12T03:49:50.465Z,91.70
2018-05-12T03:52:16.677Z,91.80
2018-05-12T03:54:42.953Z,92.10
2018-05-12T03:57:09.203Z,91.90
2018-05-12T03:59:35.453Z,91.70
2018-05-12T04:02:02.394Z,92.30
2018-05-12T04:04:41.810Z,92.10
2018-05-12T04:07:20.676Z,92.60
2018-05-12T04:09:59.107Z,92.30
2018-05-12T04:12:42.917Z,91.60
2018-05-12T04:15:09.947Z,91.80
2018-05-12T04:17:36.904Z,92.10
2018-05-12T04:20:03.168Z,91.90
2018-05-12T04:22:30.127Z,91.90
2018-05-12T04:24:56.779Z,91.70
2018-05-12T04:27:23.022Z,91.70
2018-05-12T04:29:50.003Z,92.10
2018-05-12T04:32:16.240Z,91.60
2018-05-12T04:34:42.853Z,91.90
2018-05-12T04:37:19.003Z,91.80
2018-05-12T04:39:45.244Z,92.10
2018-05-12T04:42:11.488Z,92.00
2018-05-12T04:44:38.469Z,92.30
2018-05-12T04:47:05.101Z,90.90
2018-05-12T04:49:31.326Z,90.50
2018-05-12T04:51:58.309Z,91.10
2018-05-12T04:54:24.569Z,90.90
2018-05-12T04:56:51.223Z,91.10
2018-05-12T04:59:18.154Z,91.70
2018-05-12T05:01:44.428Z,91.60
2018-05-12T05:04:10.623Z,91.90
2018-05-12T05:06:36.909Z,91.70
2018-05-12T05:09:03.578Z,91.50
2018-05-12T05:11:30.564Z,92.00
2018-05-12T05:13:56.828Z,92.00
2018-05-12T05:16:23.060Z,91.80
2018-05-12T05:18:49.340Z,91.90
2018-05-12T05:21:16.409Z,92.50
2018-05-12T05:23:42.936Z,92.20
2018-05-12T05:26:09.166Z,92.30
2018-05-12T05:28:35.403Z,92.40
2018-05-12T05:31:02.348Z,92.50
2018-05-12T05:33:28.649Z,91.80
2018-05-12T05:35:54.849Z,91.10
2018-05-12T05:38:21.088Z,91.30
2018-05-12T05:40:47.354Z,91.70
2018-05-12T05:43:13.969Z,91.80
2018-05-12T05:45:40.216Z,92.10
2018-05-12T05:48:07.161Z,92.80
2018-05-12T05:50:33.386Z,92.10
2018-05-12T05:53:00.341Z,91.90
2018-05-12T05:55:26.601Z,91.50
2018-05-12T05:57:53.580Z,92.00
2018-05-12T06:00:19.909Z,91.80
2018-05-12T06:02:46.151Z,92.00
2018-05-12T06:05:12.387Z,92.20
2018-05-12T06:07:38.666Z,92.20
2018-05-12T06:10:04.920Z,92.10
2018-05-12T06:12:31.128Z,92.30
2018-05-12T06:14:57.401Z,91.60
2018-05-12T06:17:24.420Z,91.30
2018-05-12T06:19:50.676Z,90.30
2018-05-12T06:22:17.690Z,90.30
2018-05-12T06:24:43.879Z,90.00
2018-05-12T06:27:10.850Z,90.10
2018-05-12T06:29:37.104Z,90.60
2018-05-12T06:32:04.120Z,89.30
2018-05-12T06:34:31.176Z,90.50
2018-05-12T06:36:58.219Z,90.70
2018-05-12T06:39:25.244Z,90.30
2018-05-12T06:41:51.869Z,90.20
2018-05-12T06:44:18.144Z,89.70
2018-05-12T06:46:45.134Z,89.90
2018-05-12T06:49:11.396Z,89.00
2018-05-12T06:51:37.675Z,89.30
2018-05-12T06:54:04.660Z,86.80
2018-05-12T06:56:30.934Z,84.40
2018-05-12T06:58:57.254Z,86.00
2018-05-12T07:01:23.531Z,83.70
2018-05-12T07:03:50.526Z,84.50
2018-05-12T07:06:16.776Z,84.50
2018-05-12T07:08:43.001Z,82.40
2018-05-12T07:11:10.022Z,84.00
2018-05-12T07:13:37.047Z,81.30
2018-05-12T07:16:03.707Z,80.90
2018-05-12T07:18:29.973Z,81.70
2018-05-12T07:20:56.210Z,81.90
2018-05-12T07:23:22.485Z,79.30
2018-05-12T07:25:48.729Z,81.30
2018-05-12T07:28:14.981Z,79.60
2018-05-12T07:30:41.255Z,81.30
2018-05-12T07:33:07.592Z,78.90
2018-05-12T07:35:33.837Z,80.00
2018-05-12T07:38:00.100Z,75.50
2018-05-12T07:40:26.356Z,71.50
2018-05-12T07:42:52.676Z,74.30
2018-05-12T07:45:18.945Z,74.70
2018-05-12T07:47:45.949Z,76.20
2018-05-12T07:50:12.229Z,75.10
2018-05-12T07:52:38.536Z,72.60
2018-05-12T07:55:04.791Z,71.10
2018-05-12T07:57:31.042Z,71.60
2018-05-12T07:59:58.039Z,68.50
2018-05-12T08:02:24.264Z,68.00
2018-05-12T08:04:50.564Z,66.40
2018-05-12T08:07:16.801Z,68.20
2018-05-12T08:09:43.811Z,70.20
2018-05-12T08:12:10.021Z,63.90
2018-05-12T08:14:36.366Z,64.50
2018-05-12T08:17:02.619Z,60.80
2018-05-12T08:19:28.945Z,65.30
2018-05-12T08:21:55.187Z,66.30
2018-05-12T08:24:22.229Z,63.40
2018-05-12T08:26:48.576Z,63.40
2018-05-12T08:29:14.787Z,57.60
2018-05-12T08:31:41.016Z,63.30
2018-05-12T08:34:07.215Z,62.40
2018-05-12T08:36:33.568Z,63.20
2018-05-12T08:38:59.858Z,63.20
2018-05-12T08:41:26.122Z,62.60
2018-05-12T08:43:52.366Z,64.30
2018-05-12T08:46:18.657Z,64.80
2018-05-12T08:48:44.892Z,64.00
2018-05-12T08:51:11.964Z,61.60
2018-05-12T08:53:38.214Z,63.80
2018-05-12T08:56:04.540Z,59.60
2018-05-12T08:58:30.813Z,60.20
2018-05-12T09:00:57.870Z,63.20
2018-05-12T09:03:24.931Z,60.20
2018-05-12T09:05:51.920Z,57.00
2018-05-12T09:08:18.165Z,54.20
2018-05-12T09:10:44.471Z,55.00
2018-05-12T09:13:10.767Z,53.00
2018-05-12T09:15:37.015Z,53.90
2018-05-12T09:18:03.656Z,55.90
2018-05-12T09:20:30.281Z,58.00
2018-05-12T09:22:56.557Z,55.20
2018-05-12T09:25:23.596Z,57.60
2018-05-12T09:27:49.864Z,55.10
2018-05-12T09:30:16.135Z,56.40
2018-05-12T09:32:42.397Z,55.40
2018-05-12T09:35:08.670Z,54.50
2018-05-12T09:37:34.947Z,55.20
2018-05-12T09:40:01.246Z,55.70
2018-05-12T09:42:27.586Z,54.40
2018-05-12T09:44:53.851Z,53.20
2018-05-12T09:47:20.046Z,54.10
2018-05-12T09:49:46.292Z,54.60
2018-05-12T09:52:12.565Z,51.30
2018-05-12T09:54:38.811Z,51.90
2018-05-12T09:57:05.151Z,52.20
2018-05-12T09:59:32.177Z,50.40
2018-05-12T10:01:58.403Z,47.90
2018-05-12T10:04:24.666Z,48.70
2018-05-12T10:06:50.932Z,49.60
2018-05-12T10:09:17.911Z,50.50
2018-05-12T10:11:44.151Z,49.00
2018-05-12T10:14:10.786Z,48.10
2018-05-12T10:16:37.055Z,50.50
2018-05-12T10:19:03.312Z,47.70
2018-05-12T10:21:29.577Z,48.80
2018-05-12T10:23:56.255Z,48.70
2018-05-12T10:26:22.507Z,48.40
2018-05-12T10:28:49.160Z,49.50
2018-05-12T10:31:15.420Z,48.80
2018-05-12T10:33:41.710Z,49.40
2018-05-12T10:36:08.088Z,50.40
2018-05-12T10:38:34.372Z,52.20
2018-05-12T10:41:00.656Z,49.70
2018-05-12T10:43:27.655Z,48.20
2018-05-12T10:45:54.292Z,47.80
2018-05-12T10:48:21.276Z,48.80
2018-05-12T10:50:47.527Z,48.90
2018-05-12T10:53:13.783Z,48.90
2018-05-12T10:55:40.864Z,48.80
2018-05-12T10:58:07.881Z,48.50
2018-05-12T11:00:34.549Z,48.50
2018-05-12T11:03:01.552Z,50.40
2018-05-12T11:05:27.816Z,48.80
2018-05-12T11:07:54.078Z,50.40
2018-05-12T11:10:21.123Z,49.20
2018-05-12T11:12:47.408Z,48.70
2018-05-12T11:15:13.651Z,49.90
2018-05-12T11:17:39.941Z,50.40
2018-05-12T11:20:06.977Z,47.90
2018-05-12T11:22:33.310Z,46.90
2018-05-12T11:25:00.541Z,48.40
2018-05-12T11:27:26.825Z,48.90
2018-05-12T11:29:53.818Z,48.10
2018-05-12T11:32:20.843Z,46.20
2018-05-12T11:34:47.846Z,45.90
2018-05-12T11:37:14.120Z,45.00
2018-05-12T11:39:41.153Z,46.30
2018-05-12T11:42:07.451Z,44.60
2018-05-12T11:44:33.762Z,45.10
2018-05-12T11:47:00.952Z,44.60
2018-05-12T11:49:27.283Z,45.10
2018-05-12T11:51:54.285Z,46.60
2018-05-12T11:54:20.575Z,46.50
2018-05-12T11:56:46.824Z,45.10
2018-05-12T11:59:13.218Z,43.90
2018-05-12T12:01:39.463Z,44.70
2018-05-12T12:04:05.753Z,44.80
2018-05-12T12:06:32.008Z,43.90
2018-05-12T12:08:58.339Z,43.00
2018-05-12T12:11:25.598Z,42.80
2018-05-12T12:13:51.836Z,43.40
2018-05-12T12:16:18.149Z,43.00
2018-05-12T12:18:44.382Z,42.70
2018-05-12T12:21:10.723Z,40.60
2018-05-12T12:23:36.986Z,38.90
2018-05-12T12:26:03.346Z,38.60
2018-05-12T12:28:29.585Z,37.20
2018-05-12T12:30:55.806Z,37.60
2018-05-12T12:33:22.910Z,38.80
2018-05-12T12:35:49.158Z,39.30
2018-05-12T12:38:16.182Z,39.80
2018-05-12T12:40:44.416Z,38.20
2018-05-12T12:43:11.515Z,38.30
2018-05-12T12:45:37.804Z,38.30
2018-05-12T12:48:04.089Z,38.80
2018-05-12T12:50:30.333Z,37.80
2018-05-12T12:52:56.603Z,38.70
2018-05-12T12:55:22.842Z,37.60
2018-05-12T12:57:49.483Z,38.20
2018-05-12T13:00:15.729Z,39.40
2018-05-12T13:02:42.017Z,39.90
2018-05-12T13:05:08.258Z,38.90
2018-05-12T13:07:35.243Z,39.10
2018-05-12T13:10:01.489Z,39.10
2018-05-12T13:12:29.244Z,39.50
2018-05-12T13:14:55.663Z,37.90
2018-05-12T13:17:21.912Z,38.60
2018-05-12T13:19:48.213Z,38.40
2018-05-12T13:22:14.427Z,38.90
2018-05-12T13:24:41.449Z,37.60
2018-05-12T13:27:07.704Z,31.20
2018-05-12T13:29:34.753Z,29.50
2018-05-12T13:32:00.994Z,28.90
2018-05-12T13:34:28.032Z,25.20
2018-05-12T13:36:54.267Z,25.20
2018-05-12T13:39:20.526Z,24.00
2018-05-12T13:41:47.572Z,24.00
2018-05-12T13:44:14.571Z,27.30
2018-05-12T13:46:40.892Z,27.20
2018-05-12T13:49:07.877Z,29.60
2018-05-12T13:51:34.157Z,29.60
2018-05-12T13:54:01.169Z,30.00
2018-05-12T13:56:27.441Z,28.40
2018-05-12T13:58:54.444Z,28.30
2018-05-12T14:01:21.482Z,27.90
2018-05-12T14:03:47.711Z,27.90
2018-05-12T14:06:13.958Z,25.30
2018-05-12T14:08:40.234Z,27.30
2018-05-12T14:11:06.484Z,27.30
2018-05-12T14:13:32.788Z,27.90
2018-05-12T14:15:59.095Z,30.00
2018-05-12T14:18:25.342Z,30.70
2018-05-12T14:20:51.652Z,31.00
2018-05-12T14:23:17.913Z,30.60
2018-05-12T14:25:44.255Z,29.80
2018-05-12T14:28:10.540Z,29.90
2018-05-12T14:30:36.777Z,26.80
2018-05-12T14:33:03.783Z,26.80
2018-05-12T14:35:30.043Z,27.60
2018-05-12T14:37:56.324Z,28.00
2018-05-12T14:40:23.281Z,28.50
2018-05-12T14:42:49.580Z,28.50
2018-05-12T14:45:15.852Z,26.30
2018-05-12T14:47:42.093Z,25.00
2018-05-12T14:50:08.379Z,27.90
2018-05-12T14:52:35.404Z,30.50
2018-05-12T14:55:01.698Z,30.50
2018-05-12T14:57:28.709Z,31.30
2018-05-12T14:59:54.989Z,33.10
2018-05-12T15:02:22.042Z,34.50
2018-05-12T15:04:48.307Z,32.30
2018-05-12T15:07:14.589Z,32.60
2018-05-12T15:09:42.368Z,36.60
2018-05-12T15:12:08.648Z,36.90
2018-05-12T15:14:34.933Z,37.70
2018-05-12T15:17:01.205Z,33.10
2018-05-12T15:19:28.184Z,28.70
2018-05-12T15:21:54.554Z,28.40
2018-05-12T15:24:20.842Z,31.00
2018-05-12T15:26:47.132Z,34.30
2018-05-12T15:29:13.395Z,34.80
2018-05-12T15:31:40.418Z,34.50
2018-05-12T15:34:06.714Z,32.60
2018-05-12T15:36:33.728Z,32.30
2018-05-12T15:39:00.718Z,35.20
2018-05-12T15:41:27.069Z,35.20
2018-05-12T15:43:53.326Z,34.80
2018-05-12T15:46:19.608Z,36.60
2018-05-12T15:48:45.902Z,36.50
2018-05-12T15:51:12.129Z,36.80
2018-05-12T15:53:38.405Z,37.00
2018-05-12T15:56:05.428Z,39.30
2018-05-12T15:58:31.699Z,39.20
2018-05-12T16:00:58.684Z,42.00
2018-05-12T16:03:24.947Z,42.00
2018-05-12T16:05:52.689Z,43.50
2018-05-12T16:08:19.708Z,41.30
2018-05-12T16:10:46.719Z,42.10
2018-05-12T16:13:13.028Z,41.20
2018-05-12T16:15:39.303Z,42.40
2018-05-12T16:18:05.548Z,42.60
2018-05-12T16:20:31.832Z,42.00
2018-05-12T16:22:58.055Z,43.20
2018-05-12T16:25:24.290Z,40.80
2018-05-12T16:27:51.278Z,42.30
2018-05-12T16:30:17.570Z,42.80
2018-05-12T16:32:44.588Z,42.70
2018-05-12T16:35:10.870Z,42.80
2018-05-12T16:37:37.141Z,42.30
2018-05-12T16:40:03.463Z,43.50
2018-05-12T16:42:29.693Z,44.10
2018-05-12T16:44:55.948Z,42.70
2018-05-12T16:47:22.948Z,42.90
2018-05-12T16:49:49.938Z,44.30
2018-05-12T16:52:16.193Z,44.20
2018-05-12T16:54:42.471Z,43.00
2018-05-12T16:57:09.503Z,45.10
2018-05-12T16:59:35.755Z,42.90
2018-05-12T17:02:02.816Z,44.20
2018-05-12T17:04:29.838Z,45.90
2018-05-12T17:06:56.130Z,43.70
2018-05-12T17:09:22.388Z,43.90
2018-05-12T17:11:49.045Z,43.60
2018-05-12T17:14:15.332Z,44.10
2018-05-12T17:16:41.650Z,45.10
2018-05-12T17:19:07.878Z,45.60
2018-05-12T17:21:34.153Z,44.60
2018-05-12T17:24:01.919Z,43.90
2018-05-12T17:26:28.240Z,44.80
2018-05-12T17:28:55.385Z,45.80
2018-05-12T17:31:21.666Z,45.80
2018-05-12T17:33:47.985Z,45.20
2018-05-12T17:36:14.252Z,45.80
2018-05-12T17:38:40.541Z,48.50
2018-05-12T17:41:07.548Z,48.10
2018-05-12T17:43:34.760Z,47.60
2018-05-12T17:46:01.487Z,48.80
2018-05-12T17:48:28.489Z,49.40
2018-05-12T17:50:54.790Z,49.30
2018-05-12T17:53:21.764Z,49.40
2018-05-12T17:55:48.139Z,50.00
2018-05-12T17:58:14.465Z,49.60
2018-05-12T18:00:40.771Z,51.80
2018-05-12T18:03:06.999Z,51.40
2018-05-12T18:05:33.301Z,51.90
2018-05-12T18:07:59.549Z,53.00
2018-05-12T18:10:26.690Z,52.70
2018-05-12T18:12:53.243Z,54.50
2018-05-12T18:15:19.554Z,53.80
2018-05-12T18:17:45.883Z,56.00
2018-05-12T18:20:12.874Z,54.70
2018-05-12T18:22:40.249Z,56.10
2018-05-12T18:25:07.340Z,56.60
2018-05-12T18:27:36.540Z,55.80
2018-05-12T18:30:04.839Z,57.00
2018-05-12T18:32:32.032Z,59.00
2018-05-12T18:34:59.480Z,57.80
2018-05-12T18:37:29.289Z,58.90
2018-05-12T18:39:56.140Z,58.10
2018-05-12T18:42:24.245Z,59.80
2018-05-12T18:44:52.641Z,57.90
2018-05-12T18:47:20.800Z,59.30
2018-05-12T18:49:47.869Z,59.30
2018-05-12T18:52:14.855Z,59.80
2018-05-12T18:54:42.094Z,59.10
2018-05-12T18:57:09.188Z,60.90
2018-05-12T18:59:35.519Z,61.90
2018-05-12T19:02:02.671Z,62.30
2018-05-12T19:04:32.380Z,61.10
2018-05-12T19:06:59.192Z,63.60
2018-05-12T19:09:29.604Z,63.60
2018-05-12T19:11:58.771Z,64.50
2018-05-12T19:14:26.323Z,64.50
2018-05-12T19:16:59.409Z,64.40
2018-05-12T19:19:27.388Z,65.80
2018-05-12T19:21:53.999Z,65.80
2018-05-12T19:24:21.782Z,65.20
2018-05-12T19:26:48.488Z,65.80
2018-05-12T19:29:15.528Z,65.70
2018-05-12T19:31:41.858Z,65.60
2018-05-12T19:34:09.199Z,66.90
2018-05-12T19:36:36.711Z,67.90
2018-05-12T19:39:03.081Z,67.50
2018-05-12T19:41:30.119Z,67.10
2018-05-12T19:43:59.416Z,68.20
2018-05-12T19:46:25.698Z,67.90
2018-05-12T19:48:52.402Z,66.90
2018-05-12T19:51:19.440Z,66.50
2018-05-12T19:53:47.091Z,67.20
2018-05-12T19:56:15.324Z,67.80
2018-05-12T19:58:42.419Z,68.40
2018-05-12T20:01:11.789Z,67.90
2018-05-12T20:03:38.543Z,69.60
2018-05-12T20:06:04.829Z,68.30
2018-05-12T20:08:32.141Z,68.70
2018-05-12T20:10:58.774Z,69.70
2018-05-12T20:13:26.456Z,69.80
2018-05-12T20:15:52.748Z,70.20
2018-05-12T20:18:20.434Z,68.50
2018-05-12T20:20:47.285Z,70.00
2018-05-12T20:23:14.929Z,69.00
2018-05-12T20:25:41.315Z,69.80
2018-05-12T20:28:09.255Z,69.90
2018-05-12T20:30:35.986Z,68.70
2018-05-12T20:33:02.224Z,69.70
2018-05-12T20:35:28.570Z,71.30
2018-05-12T20:37:54.819Z,70.30
2018-05-12T20:40:21.876Z,70.20
2018-05-12T20:42:49.391Z,70.90
2018-05-12T20:45:16.118Z,70.90
2018-05-12T20:47:42.969Z,70.40
2018-05-12T20:50:10.065Z,69.90
2018-05-12T20:52:36.936Z,71.00
2018-05-12T20:55:03.995Z,71.80
2018-05-12T20:57:31.564Z,71.50
2018-05-12T20:59:58.657Z,71.00
2018-05-12T21:02:24.924Z,69.40
2018-05-12T21:04:51.220Z,69.20
2018-05-12T21:07:17.569Z,69.60
2018-05-12T21:09:44.320Z,69.40
2018-05-12T21:12:11.759Z,69.70
2018-05-12T21:14:38.411Z,68.90
2018-05-12T21:17:05.584Z,69.30
2018-05-12T21:19:32.290Z,68.70
2018-05-12T21:21:59.310Z,68.60
2018-05-12T21:24:25.920Z,67.40
2018-05-12T21:26:54.665Z,67.30
2018-05-12T21:29:21.326Z,66.10
2018-05-12T21:31:49.632Z,65.90
2018-05-12T21:34:16.241Z,65.30
2018-05-12T21:36:43.204Z,65.50
2018-05-12T21:39:10.222Z,64.30
2018-05-12T21:41:37.180Z,64.10
2018-05-12T21:44:04.250Z,62.80
2018-05-12T21:46:31.100Z,63.50
2018-05-12T21:48:57.764Z,64.00
2018-05-12T21:51:24.399Z,63.50
2018-05-12T21:53:51.400Z,64.60
2018-05-12T21:56:18.775Z,65.60
2018-05-12T21:58:45.882Z,65.10
2018-05-12T22:01:12.161Z,64.90
2018-05-12T22:03:38.734Z,64.80
2018-05-12T22:06:05.006Z,64.80
2018-05-12T22:08:31.329Z,65.30
2018-05-12T22:10:58.320Z,66.20
2018-05-12T22:13:24.621Z,66.90
2018-05-12T22:15:51.605Z,67.50
2018-05-12T22:18:20.499Z,67.50
2018-05-12T22:20:47.179Z,67.90
2018-05-12T22:23:13.491Z,68.30
2018-05-12T22:25:39.790Z,68.10
2018-05-12T22:28:06.031Z,69.60
2018-05-12T22:30:32.353Z,68.60
2018-05-12T22:32:58.536Z,69.50
2018-05-12T22:35:25.176Z,69.40
2018-05-12T22:37:52.159Z,70.30
2018-05-12T22:40:18.440Z,71.10
2018-05-12T22:42:44.732Z,71.10
2018-05-12T22:45:11.007Z,70.90
2018-05-12T22:47:38.035Z,72.00
2018-05-12T22:50:04.715Z,71.90
2018-05-12T22:52:31.710Z,72.20
2018-05-12T22:54:57.992Z,72.10
2018-05-12T22:57:24.617Z,72.30
2018-05-12T22:59:51.597Z,73.40
2018-05-12T23:02:17.914Z,73.20
2018-05-12T23:04:44.942Z,74.40
2018-05-12T23:07:11.231Z,73.90
2018-05-12T23:09:37.856Z,74.00
2018-05-12T23:12:04.159Z,73.80
2018-05-12T23:14:30.436Z,75.10
2018-05-12T23:16:57.092Z,75.30
2018-05-12T23:19:23.456Z,75.20
2018-05-12T23:21:49.721Z,75.20
2018-05-12T23:24:15.976Z,75.20
2018-05-12T23:26:43.000Z,77.10
2018-05-12T23:29:10.037Z,76.50
2018-05-12T23:31:36.294Z,77.00
2018-05-12T23:34:02.591Z,77.00
2018-05-12T23:36:29.566Z,77.20
2018-05-12T23:38:55.895Z,77.40
2018-05-12T23:41:22.181Z,77.20
2018-05-12T23:43:49.201Z,78.20
2018-05-12T23:46:16.225Z,77.60
2018-05-12T23:48:42.480Z,77.80
2018-05-12T23:51:08.742Z,78.20
2018-05-12T23:53:35.799Z,79.40
2018-05-12T23:56:02.935Z,78.20
2018-05-12T23:58:29.144Z,78.10
